createdAt,value
2023-02-27T00:01:45.109Z,0.47
2023-02-27T00:04:11.802Z,0.50
2023-02-27T00:06:38.205Z,0.50
2023-02-27T00:09:04.884Z,0.43
2023-02-27T00:11:31.437Z,0.44
2023-02-27T00:13:59.978Z,0.45
2023-02-27T00:16:26.561Z,0.49
2023-02-27T00:18:53.149Z,0.37
2023-02-27T00:21:20.561Z,0.57
2023-02-27T00:23:47.063Z,0.50
2023-02-27T00:26:13.550Z,0.38
2023-02-27T00:28:40.097Z,0.36
2023-02-27T00:31:06.724Z,0.41
2023-02-27T00:33:33.502Z,0.30
2023-02-27T00:36:01.726Z,0.34
2023-02-27T00:38:28.763Z,0.35
2023-02-27T00:40:55.375Z,0.39
2023-02-27T00:43:21.926Z,0.33
2023-02-27T00:45:53.430Z,0.38
2023-02-27T00:48:22.221Z,0.32
2023-02-27T00:50:50.116Z,0.28
2023-02-27T00:53:16.691Z,0.42
2023-02-27T00:55:45.743Z,0.35
2023-02-27T00:58:12.117Z,0.38
2023-02-27T01:00:38.985Z,0.31
2023-02-27T01:03:05.560Z,0.28
2023-02-27T01:05:34.627Z,0.24
2023-02-27T01:08:03.566Z,0.23
2023-02-27T01:10:32.537Z,0.28
2023-02-27T01:12:59.113Z,0.25
2023-02-27T01:15:25.547Z,0.23
2023-02-27T01:17:52.095Z,0.26
2023-02-27T01:20:18.618Z,0.18
2023-02-27T01:22:47.610Z,0.21
2023-02-27T01:25:16.492Z,0.29
2023-02-27T01:27:43.081Z,0.35
2023-02-27T01:30:11.523Z,0.27
2023-02-27T01:32:38.708Z,0.26
2023-02-27T01:35:05.719Z,0.36
2023-02-27T01:37:32.095Z,0.29
2023-02-27T01:40:01.672Z,0.35
2023-02-27T01:42:28.840Z,0.41
2023-02-27T01:45:06.127Z,0.27
2023-02-27T01:47:32.953Z,0.33
2023-02-27T01:50:01.681Z,0.38
2023-02-27T01:52:30.297Z,0.34
2023-02-27T01:54:57.431Z,0.27
2023-02-27T01:57:23.969Z,0.24
2023-02-27T01:59:50.542Z,0.18
2023-02-27T02:02:23.396Z,0.16
2023-02-27T02:04:50.672Z,0.28
2023-02-27T02:07:19.750Z,0.24
2023-02-27T02:09:50.729Z,0.24
2023-02-27T02:12:20.001Z,0.33
2023-02-27T02:14:46.551Z,0.28
2023-02-27T02:17:28.956Z,0.30
2023-02-27T02:20:17.896Z,0.23
2023-02-27T02:22:56.536Z,0.27
2023-02-27T02:25:41.666Z,0.30
2023-02-27T02:28:23.142Z,0.25
2023-02-27T02:31:06.520Z,0.11
2023-02-27T02:34:13.412Z,0.00
2023-02-27T02:37:10.677Z,0.12
2023-02-27T02:40:14.623Z,0.00
2023-02-27T02:42:53.370Z,-0.04
2023-02-27T02:45:29.485Z,0.10
2023-02-27T02:48:17.551Z,0.14
2023-02-27T02:50:50.281Z,0.15
2023-02-27T02:53:55.028Z,0.20
2023-02-27T02:56:43.991Z,0.20
2023-02-27T02:59:23.062Z,0.20
2023-02-27T03:01:56.431Z,0.15
2023-02-27T03:04:34.090Z,0.17
2023-02-27T03:07:08.235Z,0.11
2023-02-27T03:09:39.950Z,0.10
2023-02-27T03:12:10.650Z,0.10
2023-02-27T03:14:45.769Z,0.09
2023-02-27T03:17:20.951Z,0.09
2023-02-27T03:20:01.874Z,0.10
2023-02-27T03:22:36.232Z,0.07
2023-02-27T03:25:07.027Z,0.07
2023-02-27T03:27:38.552Z,0.00
2023-02-27T03:30:16.037Z,-0.07
2023-02-27T03:33:03.967Z,0.09
2023-02-27T03:35:54.736Z,-0.03
2023-02-27T03:38:27.993Z,-0.07
2023-02-27T03:41:19.443Z,-0.13
2023-02-27T03:44:05.444Z,-0.15
2023-02-27T03:46:32.136Z,-0.18
2023-02-27T03:48:58.518Z,-0.22
2023-02-27T03:51:28.813Z,-0.16
2023-02-27T03:54:04.031Z,-0.23
2023-02-27T03:56:50.259Z,-0.19
2023-02-27T03:59:19.515Z,-0.06
2023-02-27T04:01:46.322Z,-0.09
2023-02-27T04:04:18.470Z,-0.18
2023-02-27T04:07:13.397Z,-0.13
2023-02-27T04:09:50.463Z,-0.18
2023-02-27T04:12:32.249Z,-0.17
2023-02-27T04:15:04.668Z,-0.25
2023-02-27T04:17:38.731Z,-0.38
2023-02-27T04:20:36.129Z,-0.34
2023-02-27T04:23:19.006Z,-0.35
2023-02-27T04:26:00.922Z,-0.22
2023-02-27T04:28:46.219Z,-0.32
2023-02-27T04:31:20.038Z,-0.35
2023-02-27T04:33:57.201Z,-0.35
2023-02-27T04:36:33.212Z,-0.31
2023-02-27T04:39:04.616Z,-0.33
2023-02-27T04:41:50.744Z,-0.42
2023-02-27T04:44:20.169Z,-0.43
2023-02-27T04:46:49.796Z,-0.52
2023-02-27T04:49:28.736Z,-0.45
2023-02-27T04:52:46.870Z,-0.53
2023-02-27T04:55:40.808Z,-0.42
2023-02-27T04:58:25.421Z,-0.39
2023-02-27T05:01:00.393Z,-0.45
2023-02-27T05:03:50.037Z,-0.45
2023-02-27T05:06:20.285Z,-0.60
2023-02-27T05:08:56.119Z,-0.58
2023-02-27T05:11:32.738Z,-0.58
2023-02-27T05:14:09.094Z,-0.44
2023-02-27T05:16:45.686Z,-0.40
2023-02-27T05:19:12.714Z,-0.38
2023-02-27T05:21:53.829Z,-0.37
2023-02-27T05:24:58.166Z,-0.44
2023-02-27T05:27:36.506Z,-0.41
2023-02-27T05:30:31.913Z,-0.40
2023-02-27T05:33:15.741Z,-0.29
2023-02-27T05:35:59.173Z,-0.31
2023-02-27T05:38:27.708Z,-0.40
2023-02-27T05:41:00.075Z,-0.37
2023-02-27T05:43:36.122Z,-0.29
2023-02-27T05:46:11.506Z,-0.36
2023-02-27T05:48:55.168Z,-0.27
2023-02-27T05:51:26.736Z,-0.41
2023-02-27T05:54:01.499Z,-0.31
2023-02-27T05:56:30.813Z,-0.24
2023-02-27T05:59:02.887Z,-0.30
2023-02-27T06:01:33.025Z,-0.39
2023-02-27T06:03:59.597Z,-0.30
2023-02-27T06:06:26.659Z,-0.31
2023-02-27T06:08:55.684Z,-0.29
2023-02-27T06:11:22.159Z,-0.27
2023-02-27T06:13:49.123Z,-0.22
2023-02-27T06:16:18.469Z,-0.30
2023-02-27T06:18:45.052Z,-0.28
2023-02-27T06:21:13.750Z,-0.23
2023-02-27T06:23:40.190Z,-0.22
2023-02-27T06:26:06.685Z,-0.26
2023-02-27T06:28:37.856Z,-0.30
2023-02-27T06:31:04.387Z,-0.33
2023-02-27T06:33:30.795Z,-0.29
2023-02-27T06:35:57.340Z,-0.29
2023-02-27T06:38:23.722Z,-0.20
2023-02-27T06:40:52.521Z,-0.14
2023-02-27T06:43:26.036Z,-0.19
2023-02-27T06:45:55.514Z,-0.13
2023-02-27T06:48:24.602Z,-0.06
2023-02-27T06:50:57.967Z,-0.04
2023-02-27T06:53:24.943Z,0.00
2023-02-27T06:55:51.735Z,0.09
2023-02-27T06:58:18.750Z,0.08
2023-02-27T07:00:45.367Z,0.14
2023-02-27T07:03:12.985Z,0.18
2023-02-27T07:05:43.495Z,0.19
2023-02-27T07:08:10.849Z,0.25
2023-02-27T07:10:37.540Z,0.18
2023-02-27T07:13:06.028Z,0.20
2023-02-27T07:15:32.448Z,0.23
2023-02-27T07:17:58.814Z,0.36
2023-02-27T07:20:25.336Z,0.44
2023-02-27T07:22:51.846Z,0.48
2023-02-27T07:25:20.629Z,0.63
2023-02-27T07:27:49.671Z,0.62
2023-02-27T07:30:17.287Z,0.73
2023-02-27T07:32:43.824Z,0.77
2023-02-27T07:35:11.075Z,0.81
2023-02-27T07:37:38.436Z,0.84
2023-02-27T07:40:07.502Z,0.84
2023-02-27T07:42:34.303Z,0.89
2023-02-27T07:45:00.775Z,0.90
2023-02-27T07:47:27.244Z,0.94
2023-02-27T07:49:53.814Z,1.03
2023-02-27T07:52:20.356Z,1.05
2023-02-27T07:54:46.985Z,1.13
2023-02-27T07:57:13.787Z,1.16
2023-02-27T07:59:40.580Z,1.22
2023-02-27T08:02:12.665Z,1.28
2023-02-27T08:04:41.297Z,1.31
2023-02-27T08:07:08.144Z,1.39
2023-02-27T08:09:34.634Z,1.40
2023-02-27T08:12:03.010Z,1.46
2023-02-27T08:14:29.604Z,1.51
2023-02-27T08:16:56.040Z,1.60
2023-02-27T08:19:24.832Z,1.65
2023-02-27T08:21:51.235Z,1.70
2023-02-27T08:24:17.758Z,1.71
2023-02-27T08:26:44.294Z,1.83
2023-02-27T08:29:10.698Z,1.89
2023-02-27T08:31:37.259Z,1.95
2023-02-27T08:34:10.326Z,1.91
2023-02-27T08:36:40.371Z,1.90
2023-02-27T08:39:08.608Z,1.94
2023-02-27T08:41:35.530Z,2.08
2023-02-27T08:44:02.787Z,2.06
2023-02-27T08:46:31.781Z,2.09
2023-02-27T08:48:58.198Z,2.25
2023-02-27T08:51:27.494Z,2.28
2023-02-27T08:53:58.788Z,2.24
2023-02-27T08:56:26.930Z,2.36
2023-02-27T08:58:54.015Z,2.36
2023-02-27T09:01:20.711Z,2.39
2023-02-27T09:03:49.911Z,2.45
2023-02-27T09:06:16.285Z,2.52
2023-02-27T09:08:43.186Z,2.59
2023-02-27T09:11:09.590Z,2.61
2023-02-27T09:13:36.039Z,2.66
2023-02-27T09:16:02.550Z,2.68
2023-02-27T09:18:29.160Z,2.67
2023-02-27T09:20:56.436Z,2.72
2023-02-27T09:23:22.965Z,2.77
2023-02-27T09:25:49.372Z,2.71
2023-02-27T09:28:16.094Z,2.82
2023-02-27T09:30:42.915Z,2.88
2023-02-27T09:33:09.435Z,2.90
2023-02-27T09:35:35.839Z,2.86
2023-02-27T09:38:02.408Z,2.91
2023-02-27T09:40:32.024Z,3.00
2023-02-27T09:43:09.564Z,3.00
2023-02-27T09:45:39.261Z,3.00
2023-02-27T09:48:15.791Z,3.14
2023-02-27T09:50:48.673Z,3.10
2023-02-27T09:53:31.236Z,3.26
2023-02-27T09:56:04.670Z,3.28
2023-02-27T09:58:51.643Z,3.37
2023-02-27T10:01:20.773Z,3.34
2023-02-27T10:04:16.320Z,3.33
2023-02-27T10:06:50.479Z,3.42
2023-02-27T10:09:44.802Z,3.36
2023-02-27T10:12:39.289Z,3.38
2023-02-27T10:15:26.276Z,3.45
2023-02-27T10:18:25.558Z,3.48
2023-02-27T10:21:00.409Z,3.46
2023-02-27T10:23:46.991Z,3.46
2023-02-27T10:26:22.253Z,3.49
2023-02-27T10:28:51.301Z,3.53
2023-02-27T10:31:22.526Z,3.52
2023-02-27T10:33:49.807Z,3.66
2023-02-27T10:36:32.520Z,3.63
2023-02-27T10:39:08.808Z,3.72
2023-02-27T10:41:36.320Z,3.61
2023-02-27T10:44:02.838Z,3.59
2023-02-27T10:46:32.504Z,3.65
2023-02-27T10:49:00.681Z,3.61
2023-02-27T10:51:35.788Z,3.84
2023-02-27T10:54:15.898Z,3.88
2023-02-27T10:56:45.749Z,3.84
2023-02-27T10:59:22.713Z,3.96
2023-02-27T11:01:55.920Z,4.02
2023-02-27T11:04:29.408Z,4.16
2023-02-27T11:06:56.630Z,4.07
2023-02-27T11:09:30.289Z,4.02
2023-02-27T11:12:11.217Z,4.09
2023-02-27T11:14:49.669Z,4.15
2023-02-27T11:17:29.188Z,4.15
2023-02-27T11:19:57.909Z,4.14
2023-02-27T11:22:27.649Z,4.16
2023-02-27T11:25:17.711Z,4.17
2023-02-27T11:27:46.246Z,4.15
2023-02-27T11:30:32.378Z,4.26
2023-02-27T11:33:01.687Z,4.30
2023-02-27T11:35:34.006Z,4.41
2023-02-27T11:38:03.124Z,4.39
2023-02-27T11:40:50.292Z,4.46
2023-02-27T11:43:21.580Z,4.33
2023-02-27T11:46:04.586Z,4.14
2023-02-27T11:48:52.114Z,4.28
2023-02-27T11:51:38.976Z,4.30
2023-02-27T11:54:13.007Z,4.32
2023-02-27T11:56:54.353Z,4.38
2023-02-27T11:59:32.246Z,4.39
2023-02-27T12:02:32.565Z,4.41
2023-02-27T12:05:08.902Z,4.29
2023-02-27T12:07:54.252Z,4.30
2023-02-27T12:10:21.013Z,4.26
2023-02-27T12:12:55.697Z,4.10
2023-02-27T12:15:29.523Z,4.26
2023-02-27T12:18:10.926Z,4.41
2023-02-27T12:20:55.983Z,4.41
2023-02-27T12:23:38.559Z,4.49
2023-02-27T12:26:30.991Z,4.54
2023-02-27T12:29:15.308Z,4.59
2023-02-27T12:32:02.310Z,4.75
2023-02-27T12:34:39.850Z,4.85
2023-02-27T12:37:15.312Z,4.84
2023-02-27T12:39:44.098Z,4.74
2023-02-27T12:42:38.043Z,4.49
2023-02-27T12:45:31.527Z,4.30
2023-02-27T12:48:27.228Z,4.22
2023-02-27T12:51:12.051Z,4.30
2023-02-27T12:53:44.423Z,4.39
2023-02-27T12:56:17.822Z,4.50
2023-02-27T12:59:22.757Z,4.44
2023-02-27T13:02:18.980Z,4.37
2023-02-27T13:05:00.767Z,4.21
2023-02-27T13:07:38.097Z,4.17
2023-02-27T13:10:24.125Z,4.14
2023-02-27T13:12:57.207Z,4.06
2023-02-27T13:15:51.478Z,4.12
2023-02-27T13:18:57.204Z,4.12
2023-02-27T13:22:02.913Z,4.17
2023-02-27T13:24:32.037Z,4.09
2023-02-27T13:27:03.396Z,4.13
2023-02-27T13:29:57.316Z,4.17
2023-02-27T13:32:44.737Z,4.19
2023-02-27T13:35:22.361Z,4.25
2023-02-27T13:38:05.230Z,4.27
2023-02-27T13:40:34.734Z,4.37
2023-02-27T13:43:26.920Z,4.37
2023-02-27T13:45:59.134Z,4.33
2023-02-27T13:48:41.788Z,4.28
2023-02-27T13:51:31.766Z,4.28
2023-02-27T13:54:13.751Z,4.24
2023-02-27T13:56:45.999Z,4.23
2023-02-27T13:59:19.980Z,4.14
2023-02-27T14:01:58.990Z,4.15
2023-02-27T14:04:29.559Z,4.09
2023-02-27T14:07:02.328Z,4.18
2023-02-27T14:09:37.040Z,4.26
2023-02-27T14:12:06.677Z,4.18
2023-02-27T14:14:41.327Z,4.16
2023-02-27T14:17:33.602Z,4.12
2023-02-27T14:20:00.186Z,4.15
2023-02-27T14:22:33.626Z,4.16
2023-02-27T14:25:08.842Z,4.23
2023-02-27T14:27:38.266Z,4.33
2023-02-27T14:30:10.502Z,4.43
2023-02-27T14:32:37.759Z,4.38
2023-02-27T14:35:06.133Z,4.49
2023-02-27T14:37:33.540Z,4.38
2023-02-27T14:40:03.307Z,4.33
2023-02-27T14:43:00.353Z,4.32
2023-02-27T14:45:30.903Z,4.24
2023-02-27T14:47:58.428Z,4.11
2023-02-27T14:50:34.120Z,4.04
2023-02-27T14:53:01.640Z,4.06
2023-02-27T14:55:38.659Z,4.11
2023-02-27T14:58:14.178Z,4.10
2023-02-27T15:00:50.733Z,3.98
2023-02-27T15:03:19.014Z,4.02
2023-02-27T15:05:46.898Z,3.98
2023-02-27T15:08:29.189Z,3.89
2023-02-27T15:10:58.662Z,3.91
2023-02-27T15:13:28.709Z,3.92
2023-02-27T15:16:26.685Z,3.87
2023-02-27T15:18:59.948Z,3.96
2023-02-27T15:21:34.034Z,3.92
2023-02-27T15:24:04.598Z,3.89
2023-02-27T15:26:38.885Z,3.96
2023-02-27T15:29:07.716Z,4.02
2023-02-27T15:31:35.197Z,4.12
2023-02-27T15:34:03.831Z,4.02
2023-02-27T15:36:35.464Z,4.01
2023-02-27T15:39:18.987Z,4.00
2023-02-27T15:41:48.700Z,4.00
2023-02-27T15:44:18.483Z,4.00
2023-02-27T15:46:46.450Z,3.92
2023-02-27T15:49:21.634Z,3.85
2023-02-27T15:51:55.206Z,3.79
2023-02-27T15:54:22.917Z,3.70
2023-02-27T15:56:49.520Z,3.70
2023-02-27T15:59:19.714Z,3.67
2023-02-27T16:01:48.112Z,3.65
2023-02-27T16:04:24.396Z,3.60
2023-02-27T16:06:59.908Z,3.53
2023-02-27T16:09:33.025Z,3.55
2023-02-27T16:12:22.974Z,3.53
2023-02-27T16:14:55.804Z,3.49
2023-02-27T16:17:27.545Z,3.48
2023-02-27T16:19:56.295Z,3.44
2023-02-27T16:22:23.447Z,3.38
2023-02-27T16:24:52.685Z,3.41
2023-02-27T16:27:29.259Z,3.34
2023-02-27T16:30:04.974Z,3.29
2023-02-27T16:32:38.979Z,3.16
2023-02-27T16:35:08.683Z,3.15
2023-02-27T16:37:40.752Z,3.15
2023-02-27T16:40:18.257Z,3.05
2023-02-27T16:42:45.842Z,2.96
2023-02-27T16:45:23.730Z,2.84
2023-02-27T16:47:52.765Z,2.82
2023-02-27T16:50:35.431Z,2.78
2023-02-27T16:53:01.770Z,2.70
2023-02-27T16:55:28.374Z,2.71
2023-02-27T16:57:54.876Z,2.68
2023-02-27T17:00:22.723Z,2.76
2023-02-27T17:02:49.469Z,2.70
2023-02-27T17:05:16.201Z,2.82
2023-02-27T17:07:45.735Z,2.84
2023-02-27T17:10:18.679Z,2.91
2023-02-27T17:12:49.972Z,2.78
2023-02-27T17:15:17.069Z,2.81
2023-02-27T17:17:44.416Z,2.68
2023-02-27T17:20:12.802Z,2.51
2023-02-27T17:22:41.491Z,2.48
2023-02-27T17:25:09.336Z,2.41
2023-02-27T17:27:36.323Z,2.30
2023-02-27T17:30:03.733Z,2.29
2023-02-27T17:32:30.228Z,2.39
2023-02-27T17:34:59.628Z,2.31
2023-02-27T17:37:26.199Z,2.38
2023-02-27T17:39:52.713Z,2.30
2023-02-27T17:42:22.839Z,2.34
2023-02-27T17:44:49.253Z,2.40
2023-02-27T17:47:18.023Z,2.36
2023-02-27T17:49:44.494Z,2.27
2023-02-27T17:52:13.579Z,2.36
2023-02-27T17:54:40.069Z,2.25
2023-02-27T17:57:07.033Z,2.14
2023-02-27T17:59:33.642Z,2.23
2023-02-27T18:02:00.077Z,2.22
2023-02-27T18:04:26.533Z,2.32
2023-02-27T18:06:53.344Z,2.23
2023-02-27T18:09:20.132Z,2.22
2023-02-27T18:11:49.627Z,2.13
2023-02-27T18:14:18.775Z,2.03
2023-02-27T18:16:45.291Z,1.95
2023-02-27T18:19:14.326Z,1.98
2023-02-27T18:21:44.421Z,1.90
2023-02-27T18:24:11.028Z,1.80
2023-02-27T18:26:38.117Z,1.73
2023-02-27T18:29:14.054Z,1.59
2023-02-27T18:31:48.363Z,1.57
2023-02-27T18:34:14.738Z,1.68
2023-02-27T18:36:41.803Z,1.61
2023-02-27T18:39:08.693Z,1.46
2023-02-27T18:41:35.544Z,1.59
2023-02-27T18:44:05.148Z,1.63
2023-02-27T18:46:32.766Z,1.53
2023-02-27T18:48:59.537Z,1.45
2023-02-27T18:51:27.891Z,1.69
2023-02-27T18:53:54.439Z,1.49
2023-02-27T18:56:23.669Z,1.40
2023-02-27T18:58:51.602Z,1.25
2023-02-27T19:01:27.374Z,1.18
2023-02-27T19:04:00.133Z,1.08
2023-02-27T19:06:27.517Z,1.05
2023-02-27T19:08:54.212Z,1.00
2023-02-27T19:11:33.809Z,0.97
2023-02-27T19:14:01.905Z,1.13
2023-02-27T19:16:28.813Z,1.24
2023-02-27T19:18:57.179Z,1.21
2023-02-27T19:21:27.184Z,1.25
2023-02-27T19:23:54.071Z,1.24
2023-02-27T19:26:21.285Z,1.23
2023-02-27T19:28:51.262Z,1.16
2023-02-27T19:31:18.386Z,1.25
2023-02-27T19:33:45.217Z,1.21
2023-02-27T19:36:14.345Z,1.26
2023-02-27T19:38:40.913Z,1.34
2023-02-27T19:41:10.889Z,1.53
2023-02-27T19:43:39.328Z,1.65
2023-02-27T19:46:11.468Z,1.71
2023-02-27T19:48:38.479Z,1.69
2023-02-27T19:51:08.508Z,1.58
2023-02-27T19:53:36.396Z,1.77
2023-02-27T19:56:13.531Z,1.76
2023-02-27T19:58:40.523Z,1.79
2023-02-27T20:01:09.923Z,1.87
2023-02-27T20:03:37.162Z,2.01
2023-02-27T20:06:09.105Z,1.85
2023-02-27T20:08:35.460Z,2.00
2023-02-27T20:11:04.551Z,1.88
2023-02-27T20:13:31.170Z,1.91
2023-02-27T20:16:03.490Z,1.91
2023-02-27T20:18:33.632Z,1.90
2023-02-27T20:21:03.096Z,1.94
2023-02-27T20:23:31.372Z,1.98
2023-02-27T20:25:57.944Z,1.94
2023-02-27T20:28:29.946Z,1.94
2023-02-27T20:30:56.424Z,1.97
2023-02-27T20:33:23.011Z,2.06
2023-02-27T20:35:49.439Z,2.03
2023-02-27T20:38:19.821Z,2.09
2023-02-27T20:40:46.496Z,2.07
2023-02-27T20:43:12.877Z,2.02
2023-02-27T20:45:39.722Z,2.07
2023-02-27T20:48:07.282Z,2.00
2023-02-27T20:50:34.252Z,1.97
2023-02-27T20:53:00.646Z,1.90
2023-02-27T20:55:27.072Z,1.90
2023-02-27T20:57:53.442Z,1.92
2023-02-27T21:00:20.540Z,1.92
2023-02-27T21:02:46.961Z,1.99
2023-02-27T21:05:13.410Z,2.02
2023-02-27T21:07:39.988Z,1.88
2023-02-27T21:10:06.871Z,1.81
2023-02-27T21:12:34.002Z,1.69
2023-02-27T21:15:00.395Z,1.63
2023-02-27T21:17:31.698Z,1.57
2023-02-27T21:20:06.547Z,1.64
2023-02-27T21:22:33.310Z,1.66
2023-02-27T21:24:59.870Z,1.68
2023-02-27T21:27:26.400Z,1.73
2023-02-27T21:29:53.014Z,1.71
2023-02-27T21:32:19.623Z,1.71
2023-02-27T21:34:48.463Z,1.69
2023-02-27T21:37:14.977Z,1.70
2023-02-27T21:39:41.519Z,1.73
2023-02-27T21:42:08.017Z,1.71
2023-02-27T21:44:34.570Z,1.78
2023-02-27T21:47:09.754Z,1.71
2023-02-27T21:49:39.378Z,1.68
2023-02-27T21:52:06.400Z,1.66
2023-02-27T21:54:32.818Z,1.62
2023-02-27T21:57:01.869Z,1.64
2023-02-27T21:59:28.896Z,1.60
2023-02-27T22:01:56.256Z,1.57
2023-02-27T22:04:26.123Z,1.58
2023-02-27T22:06:52.978Z,1.54
2023-02-27T22:09:19.812Z,1.57
2023-02-27T22:11:47.323Z,1.46
2023-02-27T22:14:14.093Z,1.41
2023-02-27T22:16:41.030Z,1.35
2023-02-27T22:19:09.757Z,1.37
2023-02-27T22:21:36.887Z,1.34
2023-02-27T22:24:03.612Z,1.30
2023-02-27T22:26:34.031Z,1.18
2023-02-27T22:29:01.223Z,1.19
2023-02-27T22:31:31.051Z,1.08
2023-02-27T22:34:04.031Z,1.07
2023-02-27T22:36:32.053Z,0.97
2023-02-27T22:39:02.271Z,0.92
2023-02-27T22:41:31.710Z,0.98
2023-02-27T22:43:59.898Z,0.98
2023-02-27T22:46:30.465Z,0.81
2023-02-27T22:48:59.217Z,0.78
2023-02-27T22:51:28.484Z,0.73
2023-02-27T22:53:57.154Z,0.69
2023-02-27T22:56:24.055Z,0.46
2023-02-27T22:58:51.027Z,0.43
2023-02-27T23:01:21.979Z,0.32
2023-02-27T23:03:51.096Z,0.31
2023-02-27T23:06:20.565Z,0.26
2023-02-27T23:08:47.882Z,0.18
2023-02-27T23:11:18.367Z,0.28
2023-02-27T23:13:44.789Z,0.19
2023-02-27T23:16:12.359Z,0.24
2023-02-27T23:18:46.054Z,0.23
2023-02-27T23:21:13.776Z,0.45
2023-02-27T23:23:40.407Z,0.48
2023-02-27T23:26:07.326Z,0.32
2023-02-27T23:28:37.813Z,0.25
2023-02-27T23:31:05.881Z,0.24
2023-02-27T23:33:33.005Z,0.21
2023-02-27T23:36:00.897Z,0.21
2023-02-27T23:38:28.318Z,0.26
2023-02-27T23:40:55.096Z,0.35
2023-02-27T23:43:22.140Z,0.25
2023-02-27T23:45:51.683Z,0.30
2023-02-27T23:48:18.135Z,0.36
2023-02-27T23:50:44.807Z,0.58
2023-02-27T23:53:13.261Z,0.53
2023-02-27T23:55:43.775Z,0.62
2023-02-27T23:58:11.230Z,0.47
